Time;durP1;ratioP1;P1;durP2;ratioP2;P2;SDS_P1;SDS_P2;PMS_P1;PMS_P2;Temp;Humidity;BMP_temperature;BMP_pressure;BME280_temperature;BME280_humidity;BME280_pressure;Samples;Min_cycle;Max_cycle;Signal;HPM_P1;HPM_P2
2021/07/07 00:00:14;;;;;;;3.65;1.42;;;;;;;19.76;36.93;100861.25;3571041;39;20065;-71
2021/07/07 00:02:43;;;;;;;4.25;1.60;;;;;;;19.68;36.71;100864.94;3566325;39;20050;-71
2021/07/07 00:05:13;;;;;;;2.53;1.33;;;;;;;19.64;36.41;100866.41;3555598;40;20061;-71
2021/07/07 00:07:42;;;;;;;2.83;1.58;;;;;;;19.58;36.36;100861.63;3555322;39;20138;-71
2021/07/07 00:10:14;;;;;;;2.42;1.30;;;;;;;19.56;36.95;100858.19;3555168;40;20174;-71
2021/07/07 00:12:42;;;;;;;1.95;1.05;;;;;;;19.51;36.85;100855.97;3554803;39;20394;-71
2021/07/07 00:15:15;;;;;;;3.38;1.50;;;;;;;19.51;37.10;100858.72;3552829;40;20054;-71
2021/07/07 00:17:44;;;;;;;3.17;1.55;;;;;;;19.47;36.89;100853.75;3551653;40;20334;-71
2021/07/07 00:20:16;;;;;;;3.28;1.60;;;;;;;19.45;36.96;100853.91;3556288;40;20330;-71
2021/07/07 00:22:45;;;;;;;3.42;1.50;;;;;;;19.42;37.20;100854.31;3562120;40;20054;-71
2021/07/07 00:25:14;;;;;;;3.03;1.38;;;;;;;19.40;36.96;100852.78;3587252;40;20054;-71
2021/07/07 00:27:42;;;;;;;2.55;1.25;;;;;;;19.38;37.05;100854.88;3563159;40;20309;-71
2021/07/07 00:30:14;;;;;;;3.15;1.85;;;;;;;19.38;37.06;100852.09;3585914;40;20138;-71
2021/07/07 00:32:42;;;;;;;3.25;1.50;;;;;;;19.34;37.16;100845.22;3556397;40;20154;-71
2021/07/07 00:35:12;;;;;;;3.08;1.42;;;;;;;19.33;37.30;100849.91;3590237;40;20295;-71
2021/07/07 00:37:40;;;;;;;3.20;1.60;;;;;;;19.30;37.15;100846.66;3556857;40;20383;-71
2021/07/07 00:40:10;;;;;;;3.00;1.38;;;;;;;19.28;37.34;100849.59;3556924;40;20336;-71
2021/07/07 00:42:38;;;;;;;6.32;1.83;;;;;;;19.25;37.29;100850.00;3589106;40;20135;-71
2021/07/07 00:45:08;;;;;;;2.45;1.35;;;;;;;19.23;37.57;100849.31;3556066;40;20057;-71
2021/07/07 00:47:38;;;;;;;3.67;1.40;;;;;;;19.22;37.03;100850.38;3555877;40;20302;-71
2021/07/07 00:50:08;;;;;;;3.40;1.50;;;;;;;19.22;37.18;100846.72;3582449;40;20061;-71
2021/07/07 00:52:37;;;;;;;2.88;1.30;;;;;;;19.19;37.68;100853.50;3588464;40;20085;-71
2021/07/07 00:55:07;;;;;;;3.53;1.30;;;;;;;19.19;37.36;100851.59;3553990;40;20507;-71
2021/07/07 00:57:36;;;;;;;3.28;1.42;;;;;;;19.17;37.48;100839.00;3588397;40;20070;-71
2021/07/07 01:00:07;;;;;;;2.53;1.45;;;;;;;19.15;37.62;100836.41;3550055;40;20054;-71
2021/07/07 01:02:39;;;;;;;4.20;1.40;;;;;;;19.13;37.86;100845.94;3588753;40;20062;-71
2021/07/07 01:05:10;;;;;;;4.35;1.55;;;;;;;19.09;37.75;100850.16;3572272;40;20046;-71
2021/07/07 01:07:39;;;;;;;3.28;1.70;;;;;;;19.07;37.77;100849.50;3587580;40;20054;-71
2021/07/07 01:10:09;;;;;;;2.08;1.38;;;;;;;19.06;37.79;100851.41;3556832;40;20045;-71
2021/07/07 01:12:37;;;;;;;3.10;1.52;;;;;;;19.02;37.91;100854.75;3553905;40;20053;-71
2021/07/07 01:15:09;;;;;;;4.63;1.60;;;;;;;19.01;37.57;100851.13;3590285;40;20281;-71
2021/07/07 01:17:39;;;;;;;3.65;1.42;;;;;;;18.95;37.39;100851.84;3585027;40;20404;-70
2021/07/07 01:20:10;;;;;;;3.25;1.45;;;;;;;18.94;37.52;100843.69;3590041;40;20057;-71
2021/07/07 01:22:41;;;;;;;3.13;1.65;;;;;;;18.92;37.90;100845.81;3561726;40;20054;-71
2021/07/07 01:25:12;;;;;;;3.15;1.60;;;;;;;18.89;37.42;100846.19;3552239;40;20045;-71
2021/07/07 01:27:42;;;;;;;3.92;1.42;;;;;;;18.84;37.77;100843.13;3557236;40;20054;-71
2021/07/07 01:30:14;;;;;;;2.75;1.25;;;;;;;18.82;37.66;100851.63;3557560;39;20053;-71
2021/07/07 01:32:43;;;;;;;2.15;1.40;;;;;;;18.76;37.97;100847.66;3587759;40;20387;-71
2021/07/07 01:35:12;;;;;;;3.65;1.50;;;;;;;18.75;37.55;100848.72;3556037;40;20134;-71
2021/07/07 01:37:43;;;;;;;3.28;1.67;;;;;;;18.74;37.96;100858.06;3556244;40;20058;-71
2021/07/07 01:40:15;;;;;;;3.72;1.40;;;;;;;18.72;38.36;100860.16;3562786;39;20446;-71
2021/07/07 01:42:43;;;;;;;2.33;1.33;;;;;;;18.68;37.63;100846.88;3555561;40;20117;-71
2021/07/07 01:45:13;;;;;;;2.53;1.58;;;;;;;18.67;37.70;100853.47;3589915;40;20409;-71
2021/07/07 01:47:42;;;;;;;3.50;1.40;;;;;;;18.63;38.02;100852.09;3551817;40;20043;-70
2021/07/07 01:50:13;;;;;;;2.92;1.83;;;;;;;18.62;38.17;100853.13;3555398;40;20086;-70
2021/07/07 01:52:43;;;;;;;3.33;1.60;;;;;;;18.61;38.13;100856.94;3553752;40;20487;-71
2021/07/07 01:55:13;;;;;;;3.40;1.67;;;;;;;18.59;38.13;100856.28;3567648;40;20042;-71
2021/07/07 01:57:44;;;;;;;2.92;1.55;;;;;;;18.57;38.48;100852.84;3557859;40;20049;-71
2021/07/07 02:00:16;;;;;;;3.38;1.60;;;;;;;18.55;38.24;100854.91;3556479;39;20046;-71
2021/07/07 02:02:45;;;;;;;4.18;1.40;;;;;;;18.55;38.26;100854.91;3555311;40;20121;-71
2021/07/07 02:05:14;;;;;;;3.65;1.65;;;;;;;18.54;38.23;100851.28;3557920;40;20407;-70
2021/07/07 02:07:44;;;;;;;3.45;1.48;;;;;;;18.54;38.83;100854.06;3590370;40;20057;-70
2021/07/07 02:10:15;;;;;;;3.03;1.77;;;;;;;18.52;38.72;100853.41;3555806;40;20086;-71
2021/07/07 02:12:44;;;;;;;4.38;1.60;;;;;;;18.52;38.49;100855.31;3568119;39;20064;-72
2021/07/07 02:15:15;;;;;;;4.45;1.67;;;;;;;18.51;38.37;100851.69;3572680;40;20064;-71
2021/07/07 02:17:44;;;;;;;5.18;1.77;;;;;;;18.51;38.71;100856.34;3591857;39;20078;-71
2021/07/07 02:20:15;;;;;;;2.95;1.40;;;;;;;18.50;38.43;100849.09;3576670;39;20388;-71
2021/07/07 02:22:45;;;;;;;3.65;1.63;;;;;;;18.50;38.82;100851.84;3606903;39;20854;-70
2021/07/07 02:25:16;;;;;;;3.55;1.73;;;;;;;18.50;38.50;100851.84;3594773;40;20059;-70
2021/07/07 02:27:45;;;;;;;3.78;1.95;;;;;;;18.48;38.90;100845.63;3597340;39;20342;-71
2021/07/07 02:30:18;;;;;;;3.90;1.90;;;;;;;18.49;39.00;100852.91;3604298;39;20159;-71
2021/07/07 02:32:47;;;;;;;3.72;1.70;;;;;;;18.44;39.05;100850.69;3595834;39;20066;-71
2021/07/07 02:35:18;;;;;;;3.25;1.58;;;;;;;18.45;38.89;100846.84;3605402;39;20079;-71
2021/07/07 02:37:49;;;;;;;4.45;2.10;;;;;;;18.43;38.62;100847.06;3598403;39;21345;-70
2021/07/07 02:40:19;;;;;;;4.47;1.73;;;;;;;18.37;38.67;100850.53;3607558;39;20062;-71
2021/07/07 02:42:48;;;;;;;3.63;1.50;;;;;;;18.37;39.11;100849.69;3606691;39;20118;-71
2021/07/07 02:45:17;;;;;;;3.97;1.60;;;;;;;18.36;39.18;100851.59;3598409;39;20082;-71
2021/07/07 02:47:47;;;;;;;3.05;1.40;;;;;;;18.36;38.92;100842.44;3596631;39;20039;-70
2021/07/07 02:50:19;;;;;;;4.93;1.80;;;;;;;18.35;38.94;100844.34;3606965;39;20422;-70
2021/07/07 02:52:52;;;;;;;4.03;1.58;;;;;;;18.35;39.36;100852.66;3600771;39;20098;-71
2021/07/07 02:55:22;;;;;;;4.60;2.17;;;;;;;18.32;39.37;100852.16;3597933;39;20060;-70
2021/07/07 02:57:57;;;;;;;3.42;1.88;;;;;;;18.31;39.04;100859.59;3605758;39;20044;-71
2021/07/07 03:00:28;;;;;;;4.55;1.65;;;;;;;18.31;39.23;100862.38;3582873;40;20402;-71
2021/07/07 03:02:59;;;;;;;4.00;1.90;;;;;;;18.28;39.24;100859.09;3555479;40;20134;-70
2021/07/07 03:05:29;;;;;;;3.58;1.73;;;;;;;18.27;38.96;100863.78;3577596;40;20049;-70
2021/07/07 03:07:59;;;;;;;5.18;1.63;;;;;;;18.27;38.49;100863.78;3555585;39;20494;-70
2021/07/07 03:10:28;;;;;;;3.97;1.65;;;;;;;18.24;39.26;100866.03;3553608;40;20345;-70
2021/07/07 03:12:56;;;;;;;5.40;1.80;;;;;;;18.21;39.01;100861.72;3563791;39;20165;-70
2021/07/07 03:15:26;;;;;;;3.58;1.65;;;;;;;18.19;39.28;100861.06;3585875;40;20146;-70
2021/07/07 03:17:55;;;;;;;3.88;1.60;;;;;;;18.18;39.38;100869.56;3558866;39;20389;-70
2021/07/07 03:20:24;;;;;;;4.00;1.90;;;;;;;18.15;39.45;100875.44;3573312;39;20057;-71
2021/07/07 03:22:52;;;;;;;4.88;1.80;;;;;;;18.14;39.43;100871.81;3606742;39;20310;-70
2021/07/07 03:25:23;;;;;;;3.08;1.60;;;;;;;18.14;39.29;100873.72;3606537;39;20064;-70
2021/07/07 03:27:51;;;;;;;3.58;1.40;;;;;;;18.12;39.65;100878.56;3601355;39;20074;-70
2021/07/07 03:30:20;;;;;;;3.78;1.80;;;;;;;18.10;39.11;100877.91;3596713;39;20335;-70
2021/07/07 03:32:49;;;;;;;3.33;1.55;;;;;;;18.08;39.56;100885.53;3602044;39;20150;-70
2021/07/07 03:35:17;;;;;;;3.15;1.55;;;;;;;18.06;39.18;100880.16;3606901;39;20110;-70
2021/07/07 03:37:45;;;;;;;2.67;1.40;;;;;;;18.06;39.67;100894.00;3601667;39;20140;-70
2021/07/07 03:40:16;;;;;;;3.65;1.38;;;;;;;18.06;39.75;100885.69;3607100;39;20373;-70
2021/07/07 03:42:46;;;;;;;4.78;1.70;;;;;;;18.05;39.30;100889.50;3603413;39;20055;-70
2021/07/07 03:45:16;;;;;;;4.82;1.48;;;;;;;18.05;39.33;100892.28;3606158;39;20052;-70
2021/07/07 03:47:45;;;;;;;4.25;1.55;;;;;;;18.03;39.87;100889.66;3603370;39;20044;-70
2021/07/07 03:50:15;;;;;;;4.45;1.50;;;;;;;18.05;39.64;100900.56;3606621;39;20085;-70
2021/07/07 03:52:44;;;;;;;4.10;1.38;;;;;;;18.04;39.81;100901.63;3596184;39;20063;-70
2021/07/07 03:55:16;;;;;;;2.40;1.50;;;;;;;18.08;39.30;100913.19;3596062;39;20095;-70
2021/07/07 03:57:46;;;;;;;3.10;1.23;;;;;;;18.05;39.42;100915.28;3557970;39;20049;-70
2021/07/07 04:00:18;;;;;;;3.55;1.30;;;;;;;18.08;40.00;100925.13;3554927;39;20057;-71
2021/07/07 04:02:46;;;;;;;4.07;1.48;;;;;;;18.06;39.38;100929.97;3582140;39;20143;-70
2021/07/07 04:05:15;;;;;;;4.43;1.80;;;;;;;18.06;40.07;100929.97;3555815;39;20495;-70
2021/07/07 04:07:44;;;;;;;4.35;1.50;;;;;;;18.06;40.06;100930.84;3551707;39;20050;-70
2021/07/07 04:10:14;;;;;;;3.70;1.67;;;;;;;18.08;39.78;100938.13;3591725;40;20387;-71
2021/07/07 04:12:43;;;;;;;2.80;1.60;;;;;;;18.06;39.57;100943.81;3553571;40;20453;-70
2021/07/07 04:15:14;;;;;;;4.25;1.80;;;;;;;18.07;39.46;100937.25;3556946;40;20057;-71
2021/07/07 04:17:44;;;;;;;2.90;1.50;;;;;;;18.05;40.20;100945.72;3557644;39;20050;-71
2021/07/07 04:20:16;;;;;;;4.13;1.52;;;;;;;18.08;39.75;100949.19;3554340;40;20078;-70
2021/07/07 04:22:45;;;;;;;3.08;1.45;;;;;;;18.04;40.16;100949.53;3567689;39;20064;-71
2021/07/07 04:25:15;;;;;;;3.63;1.60;;;;;;;18.06;39.61;100947.47;3554513;40;20142;-71
2021/07/07 04:27:45;;;;;;;2.60;1.42;;;;;;;18.05;39.97;100948.50;3590295;40;20074;-70
2021/07/07 04:30:19;;;;;;;2.65;1.40;;;;;;;18.08;39.82;100954.72;3580290;40;20065;-71
2021/07/07 04:32:48;;;;;;;2.03;1.20;;;;;;;18.05;40.03;100954.03;3554517;40;20049;-70
2021/07/07 04:35:18;;;;;;;3.10;1.33;;;;;;;18.08;39.74;100949.19;3596442;39;20344;-71
2021/07/07 04:37:50;;;;;;;2.17;1.33;;;;;;;18.08;39.69;100954.72;3561506;39;20050;-70
2021/07/07 04:40:21;;;;;;;3.60;1.63;;;;;;;18.09;40.02;100960.09;3556910;39;20062;-70
2021/07/07 04:42:51;;;;;;;3.88;1.60;;;;;;;18.11;40.28;100954.38;3556631;40;20311;-71
2021/07/07 04:45:21;;;;;;;2.70;1.50;;;;;;;18.12;40.46;100961.63;3555373;40;20104;-70
2021/07/07 04:47:50;;;;;;;4.28;1.42;;;;;;;18.10;40.73;100950.75;3552660;40;20302;-70
2021/07/07 04:50:19;;;;;;;3.28;1.42;;;;;;;18.13;40.22;100955.03;3552262;40;20105;-70
2021/07/07 04:52:48;;;;;;;3.35;1.70;;;;;;;18.14;40.90;100965.94;3552417;40;20061;-71
2021/07/07 04:55:18;;;;;;;4.68;1.80;;;;;;;18.17;40.88;100964.72;3553403;39;20498;-71
2021/07/07 04:57:47;;;;;;;2.22;1.30;;;;;;;18.17;40.76;100959.19;3571856;39;20073;-70
2021/07/07 05:00:19;;;;;;;2.67;1.33;;;;;;;18.22;40.76;100965.03;3569829;39;20050;-70
2021/07/07 05:02:49;;;;;;;2.92;1.50;;;;;;;18.24;40.95;100957.41;3582623;39;20126;-71
2021/07/07 05:05:19;;;;;;;3.47;1.60;;;;;;;18.25;40.47;100960.00;3554439;40;20401;-70
2021/07/07 05:07:48;;;;;;;3.83;1.50;;;;;;;18.26;40.50;100961.75;3589386;40;20069;-70
2021/07/07 05:10:18;;;;;;;3.63;1.45;;;;;;;18.28;40.91;100969.84;3587142;39;20154;-70
2021/07/07 05:12:48;;;;;;;5.05;1.65;;;;;;;18.30;40.38;100962.22;3577373;39;20115;-71
2021/07/07 05:15:19;;;;;;;3.63;1.20;;;;;;;18.33;41.17;100964.66;3557569;39;20057;-71
2021/07/07 05:17:50;;;;;;;4.47;1.58;;;;;;;18.36;41.19;100967.06;3570002;39;20118;-71
2021/07/07 05:20:19;;;;;;;3.55;1.30;;;;;;;18.36;40.87;100965.13;3564134;39;20061;-70
2021/07/07 05:22:48;;;;;;;3.35;1.55;;;;;;;18.41;41.12;100970.16;3591240;39;20050;-71
2021/07/07 05:25:18;;;;;;;4.15;1.30;;;;;;;18.44;40.66;100962.31;3564517;39;20054;-71
2021/07/07 05:27:48;;;;;;;3.60;1.48;;;;;;;18.47;40.99;100968.56;3598662;39;20144;-71
2021/07/07 05:30:20;;;;;;;3.35;1.48;;;;;;;18.50;41.26;100957.97;3560055;39;20470;-71
2021/07/07 05:32:49;;;;;;;3.15;1.33;;;;;;;18.56;41.52;100967.47;3572549;39;20057;-71
2021/07/07 05:35:18;;;;;;;4.88;1.50;;;;;;;18.59;41.32;100958.81;3586007;40;20050;-71
2021/07/07 05:37:47;;;;;;;3.75;1.40;;;;;;;18.70;41.98;100966.69;3580458;40;20046;-71
2021/07/07 05:40:18;;;;;;;2.78;1.40;;;;;;;18.76;41.95;100966.84;3553517;40;21337;-70
2021/07/07 05:42:52;;;;;;;2.80;1.52;;;;;;;18.86;41.76;100974.03;3555108;40;20068;-70
2021/07/07 05:45:22;;;;;;;3.47;1.50;;;;;;;18.95;41.97;100972.94;3552825;40;20052;-73
2021/07/07 05:47:52;;;;;;;2.83;1.40;;;;;;;19.05;41.66;100984.66;3552989;40;20058;-73
2021/07/07 05:50:22;;;;;;;3.45;1.48;;;;;;;19.12;42.08;100972.63;3571048;39;20087;-73
2021/07/07 05:52:51;;;;;;;3.55;1.40;;;;;;;19.22;41.59;100974.31;3554742;40;20062;-72
2021/07/07 05:55:20;;;;;;;3.45;1.60;;;;;;;19.30;41.31;100972.31;3556167;40;20065;-73
2021/07/07 05:57:48;;;;;;;3.30;1.33;;;;;;;19.39;41.32;100976.75;3589602;40;20054;-73
2021/07/07 06:00:21;;;;;;;3.75;1.52;;;;;;;19.50;41.59;100984.66;3555679;40;20053;-72
2021/07/07 06:02:51;;;;;;;3.47;1.55;;;;;;;19.57;41.57;100990.31;3585916;40;20046;-72
2021/07/07 06:05:23;;;;;;;5.47;1.60;;;;;;;19.67;41.20;100993.69;3554622;40;20060;-72
2021/07/07 06:07:53;;;;;;;4.18;1.50;;;;;;;19.72;40.80;100996.75;3547689;40;20084;-72
2021/07/07 06:10:24;;;;;;;5.07;1.58;;;;;;;19.79;40.74;100989.38;3589650;40;20049;-72
2021/07/07 06:12:54;;;;;;;3.40;1.35;;;;;;;19.86;40.74;101003.38;3569631;40;20058;-72
2021/07/07 06:15:24;;;;;;;4.28;1.40;;;;;;;19.91;40.59;101003.69;3558561;39;20053;-72
2021/07/07 06:17:52;;;;;;;3.50;1.70;;;;;;;19.97;40.68;101002.91;3586331;40;20097;-72
2021/07/07 06:20:24;;;;;;;3.53;1.63;;;;;;;20.05;40.47;101005.59;3581041;40;20050;-72
2021/07/07 06:22:52;;;;;;;5.30;1.77;;;;;;;20.08;40.67;101010.78;3593250;39;20059;-72
2021/07/07 06:25:21;;;;;;;3.35;1.58;;;;;;;20.10;40.08;101013.34;3562999;40;20057;-72
2021/07/07 06:27:51;;;;;;;3.53;1.40;;;;;;;20.15;40.27;101020.06;3587712;40;20042;-71
2021/07/07 06:30:24;;;;;;;2.80;1.38;;;;;;;20.17;40.30;101025.44;3590127;40;20054;-72
2021/07/07 06:32:54;;;;;;;4.40;1.90;;;;;;;20.15;40.40;101022.84;3564809;40;20065;-71
2021/07/07 06:35:25;;;;;;;3.92;1.58;;;;;;;20.19;39.83;101023.31;3556594;39;20130;-71
2021/07/07 06:37:54;;;;;;;3.67;1.55;;;;;;;20.17;40.18;101020.72;3559245;39;20047;-71
2021/07/07 06:40:24;;;;;;;4.60;1.45;;;;;;;20.17;39.75;101026.25;3595662;39;20046;-71
2021/07/07 06:42:53;;;;;;;4.35;1.45;;;;;;;20.17;39.59;101023.47;3597850;39;20461;-71
2021/07/07 06:45:24;;;;;;;4.93;1.60;;;;;;;20.19;40.34;101031.63;3603795;39;20430;-71
2021/07/07 06:47:52;;;;;;;3.72;1.52;;;;;;;20.19;40.20;101031.63;3606177;39;20059;-71
2021/07/07 06:50:21;;;;;;;4.57;1.45;;;;;;;20.22;40.21;101028.53;3594423;39;20315;-71
2021/07/07 06:52:51;;;;;;;3.92;1.40;;;;;;;20.27;40.36;101028.78;3605053;39;20132;-71
2021/07/07 06:55:21;;;;;;;5.00;1.45;;;;;;;20.30;40.32;101031.19;3605391;39;20055;-71
2021/07/07 06:57:49;;;;;;;4.43;1.55;;;;;;;20.34;40.26;101037.25;3595094;39;20055;-71
2021/07/07 07:00:19;;;;;;;4.30;1.35;;;;;;;20.40;40.81;101039.25;3597690;39;20130;-70
2021/07/07 07:02:48;;;;;;;3.33;1.50;;;;;;;20.42;40.79;101032.41;3603203;39;20074;-70
2021/07/07 07:05:38;;;;;;;3.75;1.33;;;;;;;20.51;40.47;101042.38;3600821;39;20069;-70
2021/07/07 07:09:47;;;;;;;;;;;;;;;;;;;;;
2021/07/07 07:12:22;;;;;;;3.40;1.17;;;;;;;20.58;40.63;101048.06;3552618;40;20037;-69
2021/07/07 07:14:53;;;;;;;2.65;1.38;;;;;;;20.69;40.22;101061.44;3551709;40;20062;-70
2021/07/07 07:17:23;;;;;;;2.78;1.38;;;;;;;20.74;40.41;101055.31;3537915;40;20435;-70
2021/07/07 07:19:52;;;;;;;3.53;1.70;;;;;;;20.81;40.62;101057.13;3555080;40;20050;-70
2021/07/07 07:22:20;;;;;;;2.75;1.40;;;;;;;20.89;40.74;101057.03;3555768;40;20134;-70
2021/07/07 07:24:51;;;;;;;3.25;1.23;;;;;;;21.01;40.65;101063.78;3554873;40;20079;-70
2021/07/07 07:27:20;;;;;;;3.90;1.50;;;;;;;21.09;40.66;101054.47;3555507;40;20049;-71
2021/07/07 07:29:48;;;;;;;3.13;1.27;;;;;;;21.18;40.20;101064.41;3537600;40;20057;-69
2021/07/07 07:32:17;;;;;;;4.00;1.40;;;;;;;21.28;40.17;101062.19;3554739;40;20065;-69
2021/07/07 07:34:45;;;;;;;3.30;1.38;;;;;;;21.38;39.78;101059.94;3586218;40;20423;-69
2021/07/07 07:37:20;;;;;;;2.85;1.17;;;;;;;21.48;40.22;101064.31;3585407;40;20078;-69
2021/07/07 07:39:53;;;;;;;4.07;1.58;;;;;;;21.59;39.58;101067.44;3553239;39;20184;-69
2021/07/07 07:42:22;;;;;;;3.55;1.40;;;;;;;21.66;39.32;101073.06;3555496;40;20138;-69
2021/07/07 07:44:50;;;;;;;3.33;1.40;;;;;;;21.74;39.50;101071.00;3555659;40;20088;-69
2021/07/07 07:47:19;;;;;;;7.30;1.73;;;;;;;21.82;39.53;101065.28;3554673;40;20046;-69
2021/07/07 07:50:11;;;;;;;4.18;1.50;;;;;;;21.92;39.07;101075.22;3554295;40;20052;-69
2021/07/07 07:52:40;;;;;;;2.90;1.38;;;;;;;21.99;38.86;101076.13;3587507;40;20049;-69
2021/07/07 07:55:11;;;;;;;4.20;1.40;;;;;;;22.10;38.12;101075.59;3553421;40;20057;-69
2021/07/07 07:57:42;;;;;;;3.92;1.60;;;;;;;22.14;38.40;101080.56;3555369;40;20049;-70
2021/07/07 08:00:13;;;;;;;3.88;1.50;;;;;;;22.22;38.47;101076.78;3555470;40;20049;-69
2021/07/07 08:02:41;;;;;;;3.63;1.52;;;;;;;22.28;37.93;101073.19;3555669;40;20052;-70
2021/07/07 08:05:11;;;;;;;3.63;1.52;;;;;;;22.36;38.03;101081.38;3554544;40;20093;-69
2021/07/07 08:07:40;;;;;;;3.80;1.30;;;;;;;22.41;37.85;101081.63;3588435;40;20054;-69
2021/07/07 08:10:12;;;;;;;3.20;1.33;;;;;;;22.49;37.83;101078.66;3586980;40;20413;-70
2021/07/07 08:12:41;;;;;;;4.20;1.30;;;;;;;22.54;37.40;101081.72;3557493;39;20388;-70
2021/07/07 08:15:10;;;;;;;3.55;1.40;;;;;;;22.63;37.65;101078.75;3553899;39;20054;-70
2021/07/07 08:17:40;;;;;;;3.35;1.17;;;;;;;22.69;37.92;101072.34;3558682;39;20130;-71
2021/07/07 08:20:10;;;;;;;2.92;1.30;;;;;;;22.78;37.57;101077.53;3560874;40;20285;-70
2021/07/07 08:22:39;;;;;;;3.15;1.50;;;;;;;22.83;37.76;101075.00;3554172;40;20053;-69
2021/07/07 08:25:09;;;;;;;3.75;1.42;;;;;;;22.93;37.72;101080.22;3587060;40;20089;-69
2021/07/07 08:27:39;;;;;;;3.38;1.40;;;;;;;23.01;37.16;101079.16;3554322;40;20126;-69
2021/07/07 08:30:10;;;;;;;3.17;1.30;;;;;;;23.09;37.10;101087.34;3552477;40;20050;-69
2021/07/07 08:32:39;;;;;;;2.63;1.45;;;;;;;23.15;37.21;101080.91;3554741;40;20058;-69
2021/07/07 08:35:09;;;;;;;4.32;1.35;;;;;;;23.23;37.01;101083.50;3589121;40;20054;-69
2021/07/07 08:37:39;;;;;;;3.30;1.20;;;;;;;23.28;36.29;101084.63;3587126;40;20065;-68
2021/07/07 08:40:09;;;;;;;2.85;1.20;;;;;;;23.35;36.41;101076.25;3592817;39;20381;-70
2021/07/07 08:42:42;;;;;;;3.28;1.30;;;;;;;23.41;36.22;101072.63;3598399;39;20083;-69
2021/07/07 08:45:14;;;;;;;4.45;1.40;;;;;;;23.45;35.92;101076.72;3599706;39;20075;-69
2021/07/07 08:47:44;;;;;;;4.43;1.60;;;;;;;23.48;36.47;101084.69;3605947;39;20067;-69
2021/07/07 08:50:15;;;;;;;3.30;1.40;;;;;;;23.54;36.08;101078.28;3607962;39;20059;-69
2021/07/07 08:52:44;;;;;;;3.72;1.73;;;;;;;23.57;36.08;101079.75;3596812;39;20070;-69
2021/07/07 08:55:15;;;;;;;3.35;1.40;;;;;;;23.63;35.89;101078.94;3606532;39;20119;-68
2021/07/07 08:57:47;;;;;;;3.30;1.33;;;;;;;23.69;35.69;101090.09;3602953;39;20070;-71
2021/07/07 09:00:18;;;;;;;4.00;1.30;;;;;;;23.73;35.76;101079.34;3605122;39;20043;-69
2021/07/07 09:02:53;;;;;;;4.30;1.50;;;;;;;23.82;34.97;101085.56;3597191;39;20049;-69
2021/07/07 09:05:23;;;;;;;3.70;1.42;;;;;;;23.85;35.56;101082.38;3566754;39;20049;-68
2021/07/07 09:07:51;;;;;;;3.97;1.50;;;;;;;23.92;35.37;101080.44;3594027;39;20330;-69
2021/07/07 09:10:28;;;;;;;2.90;1.45;;;;;;;23.99;34.16;101093.31;3609754;39;20085;-68
2021/07/07 09:13:09;;;;;;;3.00;1.13;;;;;;;24.04;33.95;101078.72;3595360;39;20055;-69
2021/07/07 09:15:39;;;;;;;2.38;1.15;;;;;;;24.06;34.46;101073.78;3607894;39;20148;-69
2021/07/07 09:18:07;;;;;;;4.18;1.40;;;;;;;24.08;34.53;101082.81;3608615;39;20359;-69
2021/07/07 09:20:38;;;;;;;3.85;1.50;;;;;;;24.09;34.00;101084.53;3607410;39;20051;-68
2021/07/07 09:23:16;;;;;;;2.55;1.40;;;;;;;24.08;33.29;101077.22;3604438;39;20073;-70
2021/07/07 09:25:49;;;;;;;3.60;1.58;;;;;;;24.06;33.72;101083.03;3605791;39;20079;-69
2021/07/07 09:28:23;;;;;;;3.72;1.48;;;;;;;24.03;34.21;101090.97;3605298;39;20048;-71
2021/07/07 09:30:52;;;;;;;3.22;1.40;;;;;;;23.98;34.48;101094.41;3606446;39;20311;-69
2021/07/07 09:33:23;;;;;;;2.65;1.42;;;;;;;23.95;34.42;101093.97;3603501;39;20051;-70
2021/07/07 09:36:17;;;;;;;2.15;1.45;;;;;;;23.92;34.39;101094.41;3556063;40;20069;-71
2021/07/07 09:38:46;;;;;;;4.47;1.50;;;;;;;23.86;34.66;101086.88;3590819;40;20090;-71
2021/07/07 09:41:15;;;;;;;4.18;1.67;;;;;;;23.83;34.06;101088.16;3555714;40;20041;-70
2021/07/07 09:43:49;;;;;;;4.53;1.60;;;;;;;23.84;33.81;101089.88;3556567;40;20050;-70
2021/07/07 09:46:19;;;;;;;3.10;1.23;;;;;;;23.77;34.14;101086.25;3555447;40;20057;-69
2021/07/07 09:48:49;;;;;;;3.38;1.20;;;;;;;23.75;33.82;101085.59;3555509;40;20086;-70
2021/07/07 09:51:19;;;;;;;3.05;1.50;;;;;;;23.73;33.62;101082.13;3555996;40;20061;-69
2021/07/07 09:53:48;;;;;;;2.50;1.20;;;;;;;23.71;33.62;101083.44;3556453;39;20134;-69
2021/07/07 09:56:16;;;;;;;4.13;1.40;;;;;;;23.68;33.75;101093.97;3555368;39;20049;-69
2021/07/07 09:58:45;;;;;;;3.15;1.52;;;;;;;23.67;33.85;101092.25;3553620;39;20049;-69
2021/07/07 10:01:18;;;;;;;4.65;1.60;;;;;;;23.71;33.34;101089.91;3556324;39;20073;-70
2021/07/07 10:03:48;;;;;;;3.78;1.77;;;;;;;23.69;33.69;101100.41;3587409;40;20073;-69
2021/07/07 10:06:18;;;;;;;3.28;1.30;;;;;;;23.72;33.52;101099.97;3598287;39;20068;-68
2021/07/07 10:08:47;;;;;;;3.17;1.42;;;;;;;23.76;33.55;101097.63;3552677;39;20076;-70
2021/07/07 10:11:17;;;;;;;3.33;1.30;;;;;;;23.79;33.03;101097.19;3547609;40;20060;-69
2021/07/07 10:13:46;;;;;;;1.77;1.15;;;;;;;23.83;32.92;101099.34;3558012;39;20046;-69
2021/07/07 10:16:17;;;;;;;3.28;1.30;;;;;;;23.87;32.90;101103.44;3552926;40;20057;-68
2021/07/07 10:18:46;;;;;;;2.55;1.27;;;;;;;23.94;32.87;101104.31;3561547;39;20058;-68
2021/07/07 10:21:16;;;;;;;3.28;1.20;;;;;;;23.99;32.42;101096.13;3594606;39;20064;-69
2021/07/07 10:23:46;;;;;;;2.95;1.27;;;;;;;24.04;32.49;101107.50;3576001;40;20061;-68
2021/07/07 10:26:16;;;;;;;2.45;1.30;;;;;;;24.08;32.06;101102.38;3563950;39;20061;-69
2021/07/07 10:28:47;;;;;;;3.38;1.40;;;;;;;24.09;32.12;101106.91;3590220;39;20058;-68
2021/07/07 10:31:17;;;;;;;2.63;1.20;;;;;;;24.12;31.20;101105.63;3555190;40;20153;-69
2021/07/07 10:33:47;;;;;;;2.28;1.20;;;;;;;24.07;31.56;101111.84;3557573;39;20054;-69
2021/07/07 10:36:18;;;;;;;2.22;1.25;;;;;;;24.10;31.57;101102.19;3588415;39;20090;-69
2021/07/07 10:38:55;;;;;;;3.50;1.23;;;;;;;24.07;30.99;101114.63;3585092;40;20078;-68
2021/07/07 10:41:50;;;;;;;3.10;1.33;;;;;;;23.99;30.79;101120.41;3571579;39;20058;-69
2021/07/07 10:44:57;;;;;;;3.78;1.25;;;;;;;23.94;30.96;101120.19;3589125;40;20321;-69
2021/07/07 10:47:36;;;;;;;2.97;1.50;;;;;;;23.89;30.79;101120.81;3552197;40;20050;-68
2021/07/07 10:50:09;;;;;;;3.88;1.58;;;;;;;23.81;30.89;101118.25;3554810;40;20054;-68
2021/07/07 10:52:44;;;;;;;2.95;1.27;;;;;;;23.78;31.03;101124.28;3571193;39;20062;-68
2021/07/07 10:55:17;;;;;;;2.85;1.50;;;;;;;23.75;31.23;101123.84;3550589;40;20061;-67
2021/07/07 10:57:47;;;;;;;3.30;1.33;;;;;;;23.69;30.96;101128.34;3588168;39;20052;-68
2021/07/07 11:00:31;;;;;;;5.28;1.65;;;;;;;23.68;30.72;101130.28;3601519;39;20078;-67
2021/07/07 11:03:31;;;;;;;2.53;1.30;;;;;;;23.61;30.54;101137.78;3597075;39;20071;-67
2021/07/07 11:06:02;;;;;;;2.63;1.20;;;;;;;23.58;31.09;101142.91;3594658;39;20314;-67
2021/07/07 11:08:32;;;;;;;3.20;1.25;;;;;;;23.54;31.20;101139.72;3598161;39;20488;-67
2021/07/07 11:11:01;;;;;;;2.85;1.20;;;;;;;23.53;31.04;101143.56;3596741;39;20438;-67
2021/07/07 11:13:44;;;;;;;2.40;1.08;;;;;;;23.56;31.03;101134.75;3598739;39;20059;-67
2021/07/07 11:16:13;;;;;;;4.30;1.52;;;;;;;23.54;31.07;101136.91;3607064;39;20056;-68
2021/07/07 11:18:46;;;;;;;4.03;1.45;;;;;;;23.56;31.15;101148.72;3596958;39;20042;-67
2021/07/07 11:21:15;;;;;;;2.95;1.30;;;;;;;23.55;31.35;101148.94;3597771;39;20058;-68
2021/07/07 11:23:44;;;;;;;2.90;1.30;;;;;;;23.58;30.98;101145.72;3607050;39;20066;-68
2021/07/07 11:26:13;;;;;;;3.47;1.52;;;;;;;23.61;31.29;101143.38;3598038;39;20136;-68
2021/07/07 11:28:42;;;;;;;3.28;1.35;;;;;;;23.63;31.42;101143.16;3596138;39;20059;-68
2021/07/07 11:31:11;;;;;;;3.25;1.20;;;;;;;23.68;31.00;101144.25;3601716;39;20518;-68
2021/07/07 11:33:40;;;;;;;4.00;1.60;;;;;;;23.74;31.45;101144.44;3607494;39;20407;-68
2021/07/07 11:36:11;;;;;;;2.38;1.15;;;;;;;23.80;31.25;101138.88;3589036;39;20048;-67
2021/07/07 11:38:39;;;;;;;4.05;1.40;;;;;;;23.85;31.01;101149.41;3599156;39;20046;-68
2021/07/07 11:41:14;;;;;;;2.78;1.40;;;;;;;23.95;30.28;101149.88;3597763;39;20152;-67
2021/07/07 11:43:43;;;;;;;3.13;1.15;;;;;;;23.98;30.84;101150.28;3596630;39;20062;-69